Time;durP1;ratioP1;P1;durP2;ratioP2;P2;SDS_P1;SDS_P2;PMS_P1;PMS_P2;Temp;Humidity;BMP_temperature;BMP_pressure;BME280_temperature;BME280_humidity;BME280_pressure;Samples;Min_cycle;Max_cycle;Signal;HPM_P1;HPM_P2
2023/08/25 00:00:32;;;;;;;11.48;10.05;;;19.90;99.90;;;;;;5071973;28;20119;-73
2023/08/25 00:02:58;;;;;;;12.82;9.93;;;19.80;99.90;;;;;;5072740;28;20048;-73
2023/08/25 00:05:24;;;;;;;13.38;9.50;;;19.70;99.90;;;;;;5072760;28;20125;-73
2023/08/25 00:07:49;;;;;;;11.60;10.20;;;19.70;99.90;;;;;;5072688;28;20044;-73
2023/08/25 00:10:15;;;;;;;15.20;9.57;;;19.70;99.90;;;;;;5072486;28;20036;-73
2023/08/25 00:12:41;;;;;;;12.43;10.35;;;19.60;99.90;;;;;;5072551;28;20071;-73
2023/08/25 00:15:08;;;;;;;15.43;10.20;;;19.60;99.90;;;;;;5072842;28;20468;-73
2023/08/25 00:17:33;;;;;;;12.50;9.45;;;19.50;99.90;;;;;;5072521;28;20036;-73
2023/08/25 00:19:59;;;;;;;13.70;10.73;;;19.60;99.90;;;;;;5072513;28;20086;-73
2023/08/25 00:22:25;;;;;;;16.15;10.95;;;19.60;99.90;;;;;;5072452;28;20394;-73
2023/08/25 00:24:55;;;;;;;12.77;9.57;;;19.50;99.90;;;;;;5072603;28;20545;-73
2023/08/25 00:27:20;;;;;;;12.90;10.45;;;19.60;99.90;;;;;;5072333;28;20048;-73
2023/08/25 00:29:46;;;;;;;12.93;10.15;;;19.50;99.90;;;;;;5072305;28;20097;-73
2023/08/25 00:32:12;;;;;;;12.13;10.27;;;19.50;99.90;;;;;;5072157;28;20054;-73
2023/08/25 00:34:38;;;;;;;11.98;10.32;;;19.60;99.90;;;;;;5072179;28;20032;-73
2023/08/25 00:37:04;;;;;;;10.88;9.77;;;19.60;99.90;;;;;;5072180;28;20033;-73
2023/08/25 00:39:30;;;;;;;14.35;11.52;;;19.60;99.90;;;;;;5072426;28;20059;-73
2023/08/25 00:41:55;;;;;;;12.95;11.05;;;19.70;99.90;;;;;;5072380;28;20501;-73
2023/08/25 00:44:21;;;;;;;14.07;11.50;;;19.60;99.90;;;;;;5072032;28;20412;-73
2023/08/25 00:46:47;;;;;;;13.52;10.82;;;19.70;99.90;;;;;;5072304;28;20037;-73
2023/08/25 00:49:13;;;;;;;12.90;10.73;;;19.70;99.90;;;;;;5072070;28;20497;-73
2023/08/25 00:51:39;;;;;;;12.63;11.32;;;19.70;99.90;;;;;;5071964;28;20045;-73
2023/08/25 00:54:06;;;;;;;15.15;11.60;;;19.70;99.90;;;;;;5071924;28;20044;-73
2023/08/25 00:56:32;;;;;;;15.75;12.40;;;19.60;99.90;;;;;;5055272;28;20123;-73
2023/08/25 00:58:58;;;;;;;13.60;11.45;;;19.60;99.90;;;;;;5071929;28;20033;-73
2023/08/25 01:01:23;;;;;;;13.25;11.77;;;19.60;99.90;;;;;;5071875;28;20045;-73
2023/08/25 01:03:49;;;;;;;14.45;12.65;;;19.70;99.90;;;;;;5071799;28;20041;-73
2023/08/25 01:06:15;;;;;;;16.40;12.32;;;19.70;99.90;;;;;;5071851;28;20037;-73
2023/08/25 01:08:42;;;;;;;15.45;12.18;;;19.60;99.90;;;;;;5071792;28;20535;-73
2023/08/25 01:11:22;;;;;;;16.08;12.45;;;19.70;99.90;;;;;;5071879;28;20039;-73
2023/08/25 01:14:03;;;;;;;16.23;13.80;;;19.70;99.90;;;;;;5071558;28;20037;-73
2023/08/25 01:16:58;;;;;;;17.40;12.35;;;19.70;99.90;;;;;;5071806;28;20183;-73
2023/08/25 01:19:40;;;;;;;17.80;13.52;;;19.70;99.90;;;;;;5058817;28;20110;-73
2023/08/25 01:22:12;;;;;;;17.13;13.90;;;19.60;99.90;;;;;;5055059;28;20480;-73
2023/08/25 01:24:42;;;;;;;15.48;13.77;;;19.60;99.90;;;;;;5054928;28;20515;-73
2023/08/25 01:27:09;;;;;;;16.00;13.70;;;19.60;99.90;;;;;;5071691;28;20501;-73
2023/08/25 01:29:35;;;;;;;17.48;14.38;;;19.60;99.90;;;;;;5071952;28;20071;-73
2023/08/25 01:32:01;;;;;;;19.60;16.08;;;19.60;99.90;;;;;;5071729;28;20103;-73
2023/08/25 01:34:27;;;;;;;19.30;15.73;;;19.60;99.90;;;;;;5071786;28;20539;-73
2023/08/25 01:36:56;;;;;;;15.15;13.60;;;19.60;99.90;;;;;;5071595;28;20469;-73
2023/08/25 01:39:23;;;;;;;20.55;15.07;;;19.60;99.90;;;;;;5054832;28;20454;-73
2023/08/25 01:41:58;;;;;;;17.65;15.88;;;19.60;99.90;;;;;;5054835;28;20044;-73
2023/08/25 01:44:26;;;;;;;18.00;15.68;;;19.60;99.90;;;;;;5071449;28;20119;-73
2023/08/25 01:46:58;;;;;;;17.55;15.70;;;19.50;99.90;;;;;;5071726;28;20049;-73
2023/08/25 01:49:24;;;;;;;19.75;16.88;;;19.60;99.90;;;;;;5071543;28;20051;-73
2023/08/25 01:51:51;;;;;;;21.23;15.77;;;19.40;99.90;;;;;;5071375;28;20047;-73
2023/08/25 01:54:16;;;;;;;19.90;16.27;;;19.40;99.90;;;;;;5071582;28;20513;-73
2023/08/25 01:56:42;;;;;;;20.13;16.80;;;19.40;99.90;;;;;;5071393;28;20047;-73
2023/08/25 01:59:07;;;;;;;17.92;15.77;;;19.40;99.90;;;;;;5071679;28;20182;-73
2023/08/25 02:01:33;;;;;;;22.02;16.52;;;19.50;99.90;;;;;;5071600;28;20565;-73
2023/08/25 02:03:59;;;;;;;19.55;17.25;;;19.40;99.90;;;;;;5071230;28;20040;-73
2023/08/25 02:06:24;;;;;;;17.83;15.48;;;19.40;99.90;;;;;;5054598;28;20040;-73
2023/08/25 02:08:50;;;;;;;19.45;16.95;;;19.40;99.90;;;;;;5071533;28;20067;-73
2023/08/25 02:11:15;;;;;;;20.13;17.98;;;19.50;99.90;;;;;;5071010;28;20066;-73
2023/08/25 02:13:41;;;;;;;18.52;16.65;;;19.50;99.90;;;;;;5071142;28;20029;-73
2023/08/25 02:16:07;;;;;;;22.10;17.88;;;19.50;99.90;;;;;;5071227;28;20055;-73
2023/08/25 02:18:32;;;;;;;21.15;18.58;;;19.40;99.90;;;;;;5071452;28;20055;-73
2023/08/25 02:20:58;;;;;;;21.35;18.30;;;19.50;99.90;;;;;;5071118;28;20527;-73
2023/08/25 02:23:24;;;;;;;20.35;18.33;;;19.40;99.90;;;;;;5071302;28;20044;-73
2023/08/25 02:25:51;;;;;;;21.67;19.30;;;19.30;99.90;;;;;;5074725;28;20044;-73
2023/08/25 02:28:16;;;;;;;21.77;19.08;;;19.30;99.90;;;;;;5074923;28;20059;-73
2023/08/25 02:30:42;;;;;;;23.20;19.73;;;19.30;99.90;;;;;;5074613;28;20508;-73
2023/08/25 02:33:07;;;;;;;23.00;20.50;;;19.30;99.90;;;;;;5074414;28;20119;-73
2023/08/25 02:35:33;;;;;;;20.63;18.52;;;19.20;99.90;;;;;;5074524;28;20048;-73
2023/08/25 02:38:04;;;;;;;22.73;20.35;;;19.30;99.90;;;;;;5074736;28;20067;-73
2023/08/25 02:40:31;;;;;;;23.48;21.05;;;19.20;99.90;;;;;;5058114;28;20128;-73
2023/08/25 02:43:00;;;;;;;24.13;21.63;;;19.10;99.90;;;;;;5074593;28;20056;-73
2023/08/25 02:45:26;;;;;;;24.60;21.75;;;19.10;99.90;;;;;;5074342;28;20059;-73
2023/08/25 02:47:53;;;;;;;24.98;22.38;;;19.10;99.90;;;;;;5074501;28;20519;-73
2023/08/25 02:50:19;;;;;;;25.70;22.95;;;19.10;99.90;;;;;;5074283;28;20044;-73
2023/08/25 02:52:45;;;;;;;29.38;24.65;;;19.10;99.90;;;;;;5074026;28;20036;-73
2023/08/25 02:55:16;;;;;;;32.38;25.75;;;19.10;99.90;;;;;;5074155;28;20400;-73
2023/08/25 02:57:47;;;;;;;32.53;26.67;;;19.10;99.90;;;;;;5074176;28;20493;-73
2023/08/25 03:00:20;;;;;;;30.10;25.92;;;19.00;99.90;;;;;;5074120;28;20467;-73
2023/08/25 03:02:48;;;;;;;30.60;25.65;;;19.00;99.90;;;;;;5073967;28;20489;-73
2023/08/25 03:05:13;;;;;;;31.42;27.88;;;19.10;99.90;;;;;;5073962;28;20500;-73
2023/08/25 03:07:39;;;;;;;31.67;26.73;;;19.00;99.90;;;;;;5073884;28;20040;-73
2023/08/25 03:10:05;;;;;;;33.05;28.45;;;19.10;99.90;;;;;;5073688;28;20127;-73
2023/08/25 03:12:31;;;;;;;37.67;30.33;;;19.10;99.90;;;;;;5057097;28;20052;-72
2023/08/25 03:14:56;;;;;;;31.00;27.73;;;19.10;99.90;;;;;;5073807;28;20037;-72
2023/08/25 03:17:22;;;;;;;35.30;28.77;;;19.10;99.90;;;;;;5074015;28;20075;-72
2023/08/25 03:19:48;;;;;;;37.65;30.10;;;19.10;99.90;;;;;;5073711;28;20409;-72
2023/08/25 03:22:14;;;;;;;34.90;29.95;;;19.00;99.90;;;;;;5056984;28;20047;-73
2023/08/25 03:24:40;;;;;;;36.42;30.38;;;19.10;99.90;;;;;;5073529;28;20036;-73
2023/08/25 03:27:05;;;;;;;33.28;26.88;;;19.10;99.90;;;;;;5074668;28;20044;-73
2023/08/25 03:29:31;;;;;;;33.60;29.58;;;19.00;99.90;;;;;;5073523;28;20437;-73
2023/08/25 03:31:58;;;;;;;33.00;28.10;;;19.00;99.90;;;;;;5073567;28;20098;-73
2023/08/25 03:34:23;;;;;;;31.65;28.33;;;18.90;99.90;;;;;;5073379;28;20039;-73
2023/08/25 03:36:49;;;;;;;36.60;30.13;;;19.00;99.90;;;;;;5073501;28;20036;-73
2023/08/25 03:39:15;;;;;;;42.42;31.55;;;19.00;99.90;;;;;;5073275;28;20557;-73
2023/08/25 03:41:41;;;;;;;40.85;29.17;;;18.90;99.90;;;;;;5073220;28;20044;-73
2023/08/25 03:44:06;;;;;;;38.78;29.17;;;18.90;99.90;;;;;;5073146;28;20094;-73
2023/08/25 03:46:32;;;;;;;33.97;28.20;;;18.90;99.90;;;;;;5073140;28;20048;-73
2023/08/25 03:48:58;;;;;;;46.17;30.40;;;18.80;99.90;;;;;;5073389;28;20071;-73
2023/08/25 03:51:24;;;;;;;43.90;32.17;;;18.90;99.90;;;;;;5073234;28;20497;-73
2023/08/25 03:53:49;;;;;;;37.70;31.77;;;18.80;99.90;;;;;;5072953;28;20409;-73
2023/08/25 03:56:15;;;;;;;38.38;30.90;;;18.80;99.90;;;;;;5073180;28;20127;-73
2023/08/25 03:58:41;;;;;;;37.38;30.05;;;18.90;99.90;;;;;;5072918;28;20051;-73
2023/08/25 04:01:07;;;;;;;40.90;32.40;;;18.90;99.90;;;;;;5073110;28;20039;-73
2023/08/25 04:03:33;;;;;;;39.00;31.30;;;18.90;99.90;;;;;;5072730;28;20043;-73
2023/08/25 04:05:59;;;;;;;35.88;31.45;;;19.00;99.90;;;;;;5072773;28;20036;-73
2023/08/25 04:08:25;;;;;;;39.40;33.38;;;18.90;99.90;;;;;;5072762;28;20039;-73
2023/08/25 04:10:51;;;;;;;43.08;33.35;;;19.00;99.90;;;;;;5072557;28;20036;-73
2023/08/25 04:13:17;;;;;;;44.50;34.70;;;19.00;99.90;;;;;;5055823;28;20045;-73
2023/08/25 04:15:43;;;;;;;47.20;34.13;;;19.00;99.90;;;;;;5072560;28;20044;-73
2023/08/25 04:18:09;;;;;;;60.40;41.17;;;19.00;99.90;;;;;;5072771;28;20123;-73
2023/08/25 04:20:34;;;;;;;44.38;36.05;;;18.90;99.90;;;;;;5055896;28;20037;-73
2023/08/25 04:23:03;;;;;;;51.63;37.22;;;19.00;99.90;;;;;;5072378;28;20036;-73
2023/08/25 04:25:29;;;;;;;51.95;36.72;;;19.10;99.90;;;;;;5072642;28;20040;-73
2023/08/25 04:27:56;;;;;;;55.80;38.63;;;19.10;99.90;;;;;;5072358;28;20090;-73
2023/08/25 04:30:25;;;;;;;46.65;36.63;;;19.10;99.90;;;;;;5072299;28;20042;-73
2023/08/25 04:32:51;;;;;;;55.47;40.15;;;19.00;99.90;;;;;;5072248;28;20049;-73
2023/08/25 04:35:17;;;;;;;60.13;41.22;;;19.10;99.90;;;;;;5072238;28;20127;-73
2023/08/25 04:37:47;;;;;;;57.72;40.97;;;19.20;99.90;;;;;;5072167;28;20119;-73
2023/08/25 04:40:15;;;;;;;54.40;38.90;;;19.10;99.90;;;;;;5072470;28;20489;-73
2023/08/25 04:42:42;;;;;;;64.18;42.80;;;19.10;99.90;;;;;;5072080;28;20040;-73
2023/08/25 04:45:09;;;;;;;59.10;42.00;;;19.20;99.90;;;;;;5072144;28;20041;-73
2023/08/25 04:47:35;;;;;;;62.95;42.42;;;19.10;99.90;;;;;;5071588;28;20523;-73
2023/08/25 04:50:03;;;;;;;77.20;47.63;;;19.30;99.90;;;;;;5072074;28;20040;-73
2023/08/25 04:52:33;;;;;;;59.60;42.53;;;19.20;99.90;;;;;;5071914;28;20520;-73
2023/08/25 04:54:59;;;;;;;52.92;40.83;;;19.30;99.90;;;;;;5073379;28;20041;-73
2023/08/25 04:57:24;;;;;;;69.35;45.25;;;19.20;99.90;;;;;;5071985;28;20054;-73
2023/08/25 04:59:50;;;;;;;71.57;47.33;;;19.20;99.90;;;;;;5071948;28;20107;-73
2023/08/25 05:02:17;;;;;;;63.00;42.25;;;19.20;99.90;;;;;;5072163;28;20036;-73
2023/08/25 05:04:43;;;;;;;60.92;43.58;;;19.30;99.90;;;;;;5072041;28;20051;-73
2023/08/25 05:07:08;;;;;;;61.80;43.10;;;19.20;99.90;;;;;;5072148;28;20066;-73
2023/08/25 05:09:34;;;;;;;73.13;46.67;;;19.30;99.90;;;;;;5071838;28;20497;-73
2023/08/25 05:12:00;;;;;;;76.95;47.15;;;19.30;99.90;;;;;;5071682;28;20037;-73
2023/08/25 05:14:25;;;;;;;71.75;46.78;;;19.30;99.90;;;;;;5071970;28;20032;-73
2023/08/25 05:16:51;;;;;;;63.15;45.83;;;19.20;99.90;;;;;;5071786;28;20033;-73
2023/08/25 05:19:16;;;;;;;67.18;46.03;;;19.30;99.90;;;;;;5071743;28;20037;-73
2023/08/25 05:21:42;;;;;;;56.83;43.20;;;19.40;99.90;;;;;;5071701;28;20040;-73
2023/08/25 05:24:21;;;;;;;54.40;41.08;;;19.30;99.90;;;;;;5071646;28;20040;-73
2023/08/25 05:26:47;;;;;;;57.72;42.85;;;19.50;99.90;;;;;;5071683;28;20040;-73
2023/08/25 05:29:14;;;;;;;53.58;40.95;;;19.40;99.90;;;;;;5071595;28;20048;-73
2023/08/25 05:31:40;;;;;;;73.15;46.88;;;19.50;99.90;;;;;;5071483;28;20456;-73
2023/08/25 05:34:06;;;;;;;63.10;45.10;;;19.50;99.90;;;;;;5071533;28;20036;-73
2023/08/25 05:36:31;;;;;;;84.65;49.88;;;19.40;99.90;;;;;;5071603;28;20047;-73
2023/08/25 05:38:57;;;;;;;59.97;44.38;;;19.40;99.90;;;;;;5071533;28;20044;-73
2023/08/25 05:41:22;;;;;;;56.15;42.95;;;19.40;99.90;;;;;;5071498;28;20037;-73
2023/08/25 05:43:48;;;;;;;58.58;41.90;;;19.50;99.90;;;;;;5071470;28;20040;-73
2023/08/25 05:46:14;;;;;;;56.83;43.10;;;19.50;99.90;;;;;;5071703;28;20037;-73
2023/08/25 05:48:40;;;;;;;52.17;39.90;;;19.60;99.90;;;;;;5071725;28;20423;-73
2023/08/25 05:51:05;;;;;;;51.67;40.20;;;19.60;99.90;;;;;;5071394;28;20485;-73
2023/08/25 05:53:31;;;;;;;48.70;37.95;;;19.60;99.90;;;;;;5054586;28;20041;-73
2023/08/25 05:55:57;;;;;;;52.97;40.38;;;19.60;99.90;;;;;;5071377;28;20048;-73
2023/08/25 05:58:23;;;;;;;49.85;39.63;;;19.80;99.90;;;;;;5071303;28;20532;-73
2023/08/25 06:00:49;;;;;;;65.45;46.55;;;19.70;99.90;;;;;;5074886;28;20037;-73
2023/08/25 06:03:16;;;;;;;57.35;41.58;;;19.70;99.90;;;;;;5058414;28;20037;-73
2023/08/25 06:05:42;;;;;;;67.82;46.67;;;19.70;99.90;;;;;;5075067;28;20127;-73
2023/08/25 06:08:08;;;;;;;62.83;45.70;;;19.80;99.90;;;;;;5075040;28;20136;-73
2023/08/25 06:10:35;;;;;;;61.67;46.80;;;19.80;99.90;;;;;;5074792;28;20075;-73
2023/08/25 06:13:00;;;;;;;67.53;48.15;;;19.80;99.90;;;;;;5074795;28;20501;-73
2023/08/25 06:15:26;;;;;;;61.42;43.67;;;19.90;99.90;;;;;;5074908;28;20043;-73
2023/08/25 06:17:52;;;;;;;61.88;45.55;;;19.90;99.90;;;;;;5074844;28;20033;-73
2023/08/25 06:20:18;;;;;;;54.58;42.55;;;19.90;99.90;;;;;;5075045;28;20037;-73
2023/08/25 06:22:43;;;;;;;59.10;44.97;;;19.90;99.90;;;;;;5074700;28;20045;-73
2023/08/25 06:25:09;;;;;;;60.25;45.38;;;20.00;99.90;;;;;;5074725;28;20043;-73
2023/08/25 06:27:36;;;;;;;56.35;41.70;;;20.10;99.90;;;;;;5074645;28;20036;-73
2023/08/25 06:30:02;;;;;;;60.88;45.33;;;20.10;99.90;;;;;;5074668;28;20090;-73
2023/08/25 06:32:28;;;;;;;57.17;44.55;;;20.10;99.90;;;;;;5074494;28;20501;-73
2023/08/25 06:34:54;;;;;;;59.00;43.85;;;20.10;99.90;;;;;;5074741;28;20037;-73
2023/08/25 06:37:20;;;;;;;53.63;43.40;;;20.20;99.90;;;;;;5074741;28;20508;-73
2023/08/25 06:39:47;;;;;;;50.50;40.75;;;20.30;99.90;;;;;;5074749;28;20037;-73
2023/08/25 06:42:13;;;;;;;48.70;40.80;;;20.20;99.90;;;;;;5074455;28;20048;-73
2023/08/25 06:44:40;;;;;;;46.40;39.10;;;20.20;99.90;;;;;;5074555;28;20044;-72
2023/08/25 06:47:06;;;;;;;46.90;38.97;;;20.40;99.90;;;;;;5074309;28;20098;-72
2023/08/25 06:49:31;;;;;;;52.17;42.35;;;20.40;99.90;;;;;;5074313;28;20032;-72
2023/08/25 06:51:57;;;;;;;46.95;39.40;;;20.40;99.90;;;;;;5074174;28;20040;-72
2023/08/25 06:54:24;;;;;;;49.13;39.50;;;20.50;99.90;;;;;;5074112;28;20040;-72
2023/08/25 06:56:50;;;;;;;43.42;37.83;;;20.60;99.90;;;;;;5074149;28;20051;-72
2023/08/25 06:59:16;;;;;;;45.70;38.15;;;20.70;99.90;;;;;;5074168;28;20045;-72
2023/08/25 07:01:42;;;;;;;47.13;38.47;;;20.70;99.90;;;;;;5074092;28;20143;-72
2023/08/25 07:04:07;;;;;;;46.58;38.40;;;20.80;99.90;;;;;;5073994;28;20120;-72
2023/08/25 07:06:33;;;;;;;46.22;36.25;;;20.80;99.90;;;;;;5074211;28;20071;-72
2023/08/25 07:08:59;;;;;;;41.97;37.38;;;20.90;99.90;;;;;;5073947;28;20044;-72
2023/08/25 07:11:26;;;;;;;40.28;35.33;;;21.00;99.90;;;;;;5073274;28;20048;-72
2023/08/25 07:13:52;;;;;;;42.30;36.40;;;21.00;99.90;;;;;;5057384;28;20037;-72
2023/08/25 07:16:17;;;;;;;43.78;36.25;;;21.10;99.90;;;;;;5074068;28;20397;-72
2023/08/25 07:18:43;;;;;;;47.10;38.20;;;21.00;99.90;;;;;;5073783;28;20516;-72
2023/08/25 07:21:10;;;;;;;45.38;38.00;;;21.10;99.90;;;;;;5073703;28;20033;-72
2023/08/25 07:23:36;;;;;;;44.33;36.10;;;21.10;99.90;;;;;;5073623;28;20037;-72
2023/08/25 07:26:01;;;;;;;38.75;34.10;;;21.10;99.90;;;;;;5073632;28;20128;-72
2023/08/25 07:28:27;;;;;;;40.25;34.60;;;21.20;99.90;;;;;;5073621;28;20046;-72
2023/08/25 07:30:52;;;;;;;39.75;33.83;;;21.10;99.90;;;;;;5073730;28;20041;-72
2023/08/25 07:33:18;;;;;;;42.30;33.65;;;21.20;99.90;;;;;;5073326;28;20047;-72
2023/08/25 07:35:44;;;;;;;43.35;35.35;;;21.20;99.90;;;;;;5073692;28;20093;-72
2023/08/25 07:38:10;;;;;;;39.55;32.97;;;21.30;99.90;;;;;;5073404;28;20470;-72
2023/08/25 07:40:37;;;;;;;42.53;33.10;;;21.20;99.90;;;;;;5073479;28;20493;-74
2023/08/25 07:43:03;;;;;;;42.05;33.97;;;21.20;99.90;;;;;;5073176;28;20059;-73
2023/08/25 07:45:29;;;;;;;42.25;33.90;;;21.30;99.90;;;;;;5073780;28;20048;-73
2023/08/25 07:47:55;;;;;;;36.55;31.02;;;21.30;99.90;;;;;;5073389;28;20048;-73
2023/08/25 07:50:24;;;;;;;36.10;31.27;;;21.20;99.90;;;;;;5073339;28;20405;-73
2023/08/25 07:52:50;;;;;;;37.42;32.33;;;21.30;99.90;;;;;;5072909;28;20048;-73
2023/08/25 07:55:16;;;;;;;39.97;31.90;;;21.30;99.90;;;;;;5073037;28;20180;-73
2023/08/25 07:57:42;;;;;;;39.67;32.95;;;21.40;99.90;;;;;;5072969;28;20109;-73
2023/08/25 08:00:12;;;;;;;39.92;33.35;;;21.50;99.90;;;;;;5072859;28;20057;-73
2023/08/25 08:02:38;;;;;;;41.13;31.95;;;21.50;99.90;;;;;;5056125;28;20119;-73
2023/08/25 08:05:04;;;;;;;36.92;31.63;;;21.50;99.90;;;;;;5072803;28;20170;-73
2023/08/25 08:07:29;;;;;;;36.83;29.98;;;21.60;99.90;;;;;;5072999;28;20413;-73
2023/08/25 08:09:55;;;;;;;35.83;30.65;;;21.70;99.90;;;;;;5072580;28;20044;-73
2023/08/25 08:12:20;;;;;;;35.60;30.77;;;21.70;99.90;;;;;;5072636;28;20127;-73
2023/08/25 08:14:46;;;;;;;40.55;32.25;;;21.70;99.90;;;;;;5072588;28;20035;-73
2023/08/25 08:17:11;;;;;;;41.42;30.83;;;21.70;99.90;;;;;;5072602;28;20036;-73
2023/08/25 08:19:37;;;;;;;37.88;30.52;;;21.80;99.90;;;;;;5072538;28;20036;-73
2023/08/25 08:22:03;;;;;;;36.58;28.92;;;21.70;99.90;;;;;;5071726;28;20121;-73
2023/08/25 08:24:29;;;;;;;30.75;27.20;;;21.60;99.90;;;;;;5072393;28;20044;-73
2023/08/25 08:26:54;;;;;;;36.40;27.52;;;21.60;99.90;;;;;;5055819;28;20091;-73
2023/08/25 08:29:20;;;;;;;31.42;26.67;;;21.60;99.90;;;;;;5072358;28;20074;-73
2023/08/25 08:31:46;;;;;;;33.90;27.27;;;21.60;99.90;;;;;;5072518;28;20036;-73
2023/08/25 08:34:11;;;;;;;27.08;22.35;;;21.60;99.90;;;;;;5072224;28;20548;-73
2023/08/25 08:36:37;;;;;;;31.83;24.52;;;21.60;99.90;;;;;;5072209;28;20040;-73
2023/08/25 08:39:04;;;;;;;31.65;25.42;;;21.60;99.90;;;;;;5072446;28;20078;-73
2023/08/25 08:41:31;;;;;;;32.60;23.20;;;21.50;99.90;;;;;;5072213;28;20040;-73
2023/08/25 08:44:00;;;;;;;32.00;23.70;;;21.50;99.90;;;;;;5072006;28;20086;-73
2023/08/25 08:46:29;;;;;;;30.35;23.48;;;21.60;99.90;;;;;;5072080;28;20029;-73
2023/08/25 08:48:55;;;;;;;26.38;21.40;;;21.60;99.90;;;;;;5072051;28;20044;-73
2023/08/25 08:51:21;;;;;;;28.05;22.92;;;21.60;99.90;;;;;;5072017;28;20056;-73
2023/08/25 08:53:49;;;;;;;32.17;24.10;;;21.60;99.90;;;;;;5055334;28;20115;-73
2023/08/25 08:56:15;;;;;;;30.73;25.02;;;21.60;99.90;;;;;;5071942;28;20515;-73
2023/08/25 08:58:42;;;;;;;37.83;27.98;;;21.50;99.90;;;;;;5072181;28;20489;-73
2023/08/25 09:01:10;;;;;;;34.83;28.20;;;21.50;99.90;;;;;;5071960;28;20041;-73
2023/08/25 09:03:38;;;;;;;34.97;27.85;;;21.60;99.90;;;;;;5055201;28;20045;-73
2023/08/25 09:06:04;;;;;;;34.13;26.02;;;21.50;99.90;;;;;;5072140;28;20417;-73
2023/08/25 09:08:35;;;;;;;30.92;25.48;;;21.50;99.90;;;;;;5072122;28;20489;-73
2023/08/25 09:11:03;;;;;;;34.95;27.75;;;21.60;99.90;;;;;;5071690;28;20040;-73
2023/08/25 09:13:34;;;;;;;34.72;26.52;;;21.50;99.90;;;;;;5071694;28;20036;-73
2023/08/25 09:16:09;;;;;;;33.88;28.08;;;21.50;99.90;;;;;;5071846;28;20086;-73
2023/08/25 09:18:35;;;;;;;36.33;29.90;;;21.60;99.90;;;;;;5071810;28;20559;-73
2023/08/25 09:21:04;;;;;;;38.83;30.52;;;21.60;99.90;;;;;;5071726;28;20087;-73
2023/08/25 09:23:30;;;;;;;38.17;30.13;;;21.60;99.90;;;;;;5071876;28;20102;-73
2023/08/25 09:25:56;;;;;;;37.35;30.27;;;21.60;99.90;;;;;;5054929;28;20076;-73
2023/08/25 09:28:27;;;;;;;38.53;31.02;;;21.70;99.90;;;;;;5071661;28;20040;-73
2023/08/25 09:30:52;;;;;;;36.90;31.05;;;21.70;99.90;;;;;;5071627;28;20584;-73
2023/08/25 09:33:18;;;;;;;37.88;32.90;;;21.70;99.90;;;;;;5072651;28;20123;-73
2023/08/25 09:35:44;;;;;;;35.20;31.15;;;21.70;99.90;;;;;;5075719;28;20036;-73
2023/08/25 09:38:21;;;;;;;38.28;32.33;;;21.80;99.90;;;;;;5075955;28;20036;-73
2023/08/25 09:40:47;;;;;;;36.95;31.77;;;21.70;99.90;;;;;;5075844;28;20044;-73
2023/08/25 09:43:13;;;;;;;40.42;32.17;;;21.70;99.90;;;;;;5075479;28;20044;-73
2023/08/25 09:45:39;;;;;;;37.00;31.00;;;21.70;99.90;;;;;;5075747;28;20032;-73
2023/08/25 09:48:11;;;;;;;40.55;31.15;;;21.70;99.90;;;;;;5075468;28;20040;-73
2023/08/25 09:50:43;;;;;;;35.63;30.92;;;21.80;99.90;;;;;;5075422;28;20052;-73
2023/08/25 09:53:12;;;;;;;39.17;32.42;;;21.80;99.90;;;;;;5075227;28;20409;-73
2023/08/25 09:55:39;;;;;;;37.88;31.67;;;22.00;99.90;;;;;;5075289;28;20068;-73
2023/08/25 09:58:06;;;;;;;41.85;29.52;;;22.00;99.90;;;;;;5075493;28;20145;-73
2023/08/25 10:00:38;;;;;;;33.30;28.45;;;22.10;99.90;;;;;;5075229;28;20041;-73
2023/08/25 10:03:06;;;;;;;29.25;26.02;;;22.20;99.90;;;;;;5075343;28;20509;-73
2023/08/25 10:05:32;;;;;;;38.65;28.85;;;22.20;99.90;;;;;;5075113;28;20045;-73
2023/08/25 10:07:59;;;;;;;33.03;29.05;;;22.40;99.90;;;;;;5075118;28;20045;-73
2023/08/25 10:10:26;;;;;;;33.92;29.67;;;22.50;99.90;;;;;;5074880;28;20548;-73
2023/08/25 10:12:55;;;;;;;37.13;30.38;;;22.50;99.90;;;;;;5074844;28;20053;-73
2023/08/25 10:15:22;;;;;;;33.28;27.80;;;22.60;99.90;;;;;;5074958;28;20036;-73
2023/08/25 10:17:49;;;;;;;34.67;28.60;;;22.60;99.90;;;;;;5058248;28;20039;-73
2023/08/25 10:20:15;;;;;;;35.35;27.58;;;22.50;99.90;;;;;;5074871;28;20072;-73
2023/08/25 10:22:46;;;;;;;32.72;25.55;;;22.50;99.90;;;;;;5074721;28;20040;-73
2023/08/25 10:25:13;;;;;;;31.50;26.42;;;22.50;99.90;;;;;;5074836;28;20044;-73
2023/08/25 10:27:39;;;;;;;29.77;25.92;;;22.40;99.90;;;;;;5074984;28;20118;-73
2023/08/25 10:30:06;;;;;;;32.28;26.25;;;22.40;99.90;;;;;;5074945;28;20068;-73
2023/08/25 10:32:55;;;;;;;29.50;23.83;;;22.50;99.90;;;;;;5074670;28;20040;-73
2023/08/25 10:35:41;;;;;;;29.02;23.90;;;22.70;99.90;;;;;;5050372;28;20044;-73
2023/08/25 10:38:18;;;;;;;27.02;22.52;;;22.90;99.90;;;;;;5074788;28;20040;-73
2023/08/25 10:40:51;;;;;;;28.73;22.58;;;23.10;99.90;;;;;;5074790;28;20044;-73
2023/08/25 10:43:24;;;;;;;;;;;23.30;99.90;;;;;;5058201;28;20093;-73
2023/08/25 10:45:51;;;;;;;28.38;22.38;;;23.50;99.90;;;;;;5073593;28;20003;-73
2023/08/25 10:48:19;;;;;;;31.52;22.98;;;23.60;99.90;;;;;;5074360;28;20044;-73
2023/08/25 10:50:45;;;;;;;28.08;21.80;;;23.60;99.90;;;;;;5074344;28;20036;-73
2023/08/25 10:53:37;;;;;;;29.17;22.80;;;23.40;99.90;;;;;;5074229;28;20048;-73
2023/08/25 10:56:25;;;;;;;32.03;23.15;;;23.30;99.90;;;;;;5074290;28;20036;-73
2023/08/25 10:59:10;;;;;;;27.35;22.17;;;23.20;99.90;;;;;;5074263;28;20044;-73
2023/08/25 11:01:36;;;;;;;30.17;23.27;;;23.00;99.90;;;;;;5074421;28;20036;-73
2023/08/25 11:04:12;;;;;;;26.02;20.60;;;22.90;99.90;;;;;;5074067;28;20043;-73
2023/08/25 11:06:43;;;;;;;30.33;21.27;;;22.90;99.90;;;;;;5074014;28;20040;-73
2023/08/25 11:09:17;;;;;;;30.33;21.35;;;22.90;99.90;;;;;;5073964;28;20520;-73
2023/08/25 11:11:45;;;;;;;25.40;19.33;;;22.80;99.90;;;;;;5073818;28;20037;-73
2023/08/25 11:14:11;;;;;;;23.77;17.80;;;22.80;99.90;;;;;;5073841;28;20041;-73
2023/08/25 11:16:40;;;;;;;26.27;18.60;;;22.80;99.90;;;;;;5073784;28;20499;-73
2023/08/25 11:19:10;;;;;;;22.40;16.92;;;22.80;99.90;;;;;;5073807;28;20051;-73
2023/08/25 11:21:35;;;;;;;20.63;14.95;;;22.80;99.90;;;;;;5073753;28;20111;-73
2023/08/25 11:24:01;;;;;;;19.23;14.00;;;22.90;99.90;;;;;;5073662;28;20048;-73
2023/08/25 11:26:27;;;;;;;20.77;13.27;;;22.90;99.90;;;;;;5073668;28;20032;-73
2023/08/25 11:28:54;;;;;;;21.02;15.30;;;23.00;99.90;;;;;;5073684;28;20119;-73
2023/08/25 11:31:23;;;;;;;17.52;13.90;;;23.00;99.90;;;;;;5073823;28;20078;-73
2023/08/25 11:33:54;;;;;;;16.00;13.13;;;23.10;99.90;;;;;;5073370;28;20036;-73
2023/08/25 11:36:23;;;;;;;16.23;12.38;;;23.20;99.90;;;;;;5073497;28;20064;-73
2023/08/25 11:38:51;;;;;;;17.70;12.60;;;23.30;99.90;;;;;;5073645;28;20118;-73
2023/08/25 11:41:18;;;;;;;21.40;12.55;;;23.30;99.90;;;;;;5073378;28;20036;-73
2023/08/25 11:43:47;;;;;;;15.30;9.70;;;23.40;99.90;;;;;;5073211;28;20047;-73
2023/08/25 11:46:14;;;;;;;13.02;9.82;;;23.50;99.90;;;;;;5073243;28;20040;-73
2023/08/25 11:48:39;;;;;;;15.00;10.93;;;23.60;99.90;;;;;;5074166;28;20428;-73
2023/08/25 11:51:10;;;;;;;13.57;8.73;;;23.60;99.90;;;;;;5073148;28;20489;-73
2023/08/25 11:53:36;;;;;;;15.50;8.45;;;23.60;99.90;;;;;;5073003;28;20408;-73
2023/08/25 11:56:05;;;;;;;14.73;8.95;;;23.60;99.90;;;;;;5056642;28;20123;-73
2023/08/25 11:58:36;;;;;;;12.13;8.02;;;23.60;99.90;;;;;;5073244;28;20068;-73
2023/08/25 12:01:09;;;;;;;12.93;8.65;;;23.60;99.90;;;;;;5072967;28;20090;-73
2023/08/25 12:03:36;;;;;;;15.35;9.10;;;23.50;99.90;;;;;;5072832;28;20477;-73
2023/08/25 12:06:09;;;;;;;17.33;11.63;;;23.40;99.90;;;;;;5056217;28;20505;-73
2023/08/25 12:08:36;;;;;;;14.88;10.80;;;23.40;99.90;;;;;;5056149;28;20072;-73
2023/08/25 12:11:02;;;;;;;15.07;13.05;;;23.30;99.90;;;;;;5072774;28;20436;-73
2023/08/25 12:13:35;;;;;;;16.15;12.48;;;23.30;99.90;;;;;;5072557;28;20439;-73
2023/08/25 12:16:02;;;;;;;17.48;13.43;;;23.30;99.90;;;;;;5072668;28;20044;-73
2023/08/25 12:18:33;;;;;;;21.45;16.90;;;23.30;99.90;;;;;;5072624;28;20044;-73
2023/08/25 12:20:59;;;;;;;17.73;15.57;;;23.30;99.90;;;;;;5072813;28;20094;-73
2023/08/25 12:23:25;;;;;;;19.98;16.52;;;23.20;99.90;;;;;;5072733;28;20451;-73
2023/08/25 12:25:51;;;;;;;19.92;17.17;;;23.20;99.90;;;;;;5072584;28;20047;-73
2023/08/25 12:28:17;;;;;;;19.90;16.17;;;23.20;99.90;;;;;;5072471;28;20037;-73